Terminal Aerodrome Forecast
Issued by NWS

Home | Current Version | Previous Version | Text Only | Print | Product List | Glossary On
Versions: 1 2 3 4 5 6 7 8 9 10 11 12 13 14 15 16 17
761
FTUS43 KOAX 171726
TAFBFF
TAF
KBFF 171726Z 1718/1818 26010KT P6SM VCSH BKN100
     FM180300 36005KT P6SM SCT100
     FM180900 31005KT P6SM SKC=

USA.gov is the U.S. government's official web portal to all federal, state and local government web resources and services.